createdAt,value
2022-08-05T00:02:07.705Z,7.13
2022-08-05T00:04:46.351Z,6.63
2022-08-05T00:08:01.066Z,6.50
2022-08-05T00:10:27.147Z,7.22
2022-08-05T00:13:01.011Z,8.13
2022-08-05T00:15:55.016Z,7.15
2022-08-05T00:18:30.789Z,7.07
2022-08-05T00:21:06.462Z,6.97
2022-08-05T00:23:46.345Z,7.00
2022-08-05T00:26:21.999Z,6.65
2022-08-05T00:28:56.018Z,7.05
2022-08-05T00:31:53.554Z,6.78
2022-08-05T00:34:56.058Z,7.13
2022-08-05T00:37:18.834Z,7.85
2022-08-05T00:39:58.574Z,6.45
2022-08-05T00:42:35.487Z,7.82
2022-08-05T00:45:13.466Z,7.28
2022-08-05T00:47:57.043Z,6.90
2022-08-05T00:50:31.740Z,7.03
2022-08-05T00:53:09.783Z,7.50
2022-08-05T00:56:00.480Z,7.85
2022-08-05T00:58:34.108Z,7.57
2022-08-05T01:01:09.016Z,6.90
2022-08-05T01:03:45.161Z,7.15
2022-08-05T01:06:32.398Z,7.55
2022-08-05T01:09:07.889Z,7.00
2022-08-05T01:11:42.899Z,7.43
2022-08-05T01:14:28.440Z,7.20
2022-08-05T01:17:07.391Z,7.60
2022-08-05T01:20:01.338Z,6.90
2022-08-05T01:22:54.131Z,6.97
2022-08-05T01:25:54.852Z,7.30
2022-08-05T01:28:37.111Z,7.10
2022-08-05T01:31:18.291Z,7.90
2022-08-05T01:33:58.427Z,7.30
2022-08-05T01:36:37.111Z,7.03
2022-08-05T01:39:36.069Z,7.05
2022-08-05T01:42:15.214Z,7.05
2022-08-05T01:44:54.339Z,7.32
2022-08-05T01:47:38.796Z,7.63
2022-08-05T01:50:19.245Z,7.28
2022-08-05T01:53:05.541Z,7.75
2022-08-05T01:55:44.863Z,9.75
2022-08-05T01:58:41.025Z,10.05
2022-08-05T02:01:16.042Z,10.20
2022-08-05T02:03:59.159Z,9.65
2022-08-05T02:06:38.241Z,12.07
2022-08-05T02:09:14.565Z,12.52
2022-08-05T02:11:52.855Z,12.95
2022-08-05T02:14:32.255Z,12.32
2022-08-05T02:18:28.745Z,13.05
2022-08-05T02:20:20.709Z,13.27
2022-08-05T02:22:59.858Z,13.18
2022-08-05T02:25:49.396Z,13.10
2022-08-05T02:28:29.003Z,14.13
2022-08-05T02:31:14.447Z,14.10
2022-08-05T02:33:57.416Z,16.08
2022-08-05T02:36:33.360Z,17.67
2022-08-05T02:39:11.134Z,20.00
2022-08-05T02:42:01.359Z,18.10
2022-08-05T02:44:37.562Z,17.95
2022-08-05T02:47:12.319Z,18.13
2022-08-05T02:49:48.366Z,15.18
2022-08-05T02:52:30.077Z,13.63
2022-08-05T02:55:10.885Z,13.38
2022-08-05T02:58:19.652Z,11.07
2022-08-05T03:00:40.660Z,11.20
2022-08-05T03:03:23.474Z,9.85
2022-08-05T03:06:53.819Z,9.18
2022-08-05T03:08:56.180Z,8.70
2022-08-05T03:11:54.823Z,8.75
2022-08-05T03:14:23.835Z,9.10
2022-08-05T03:16:57.552Z,7.82
2022-08-05T03:19:34.566Z,8.25
2022-08-05T03:22:16.047Z,8.07
2022-08-05T03:24:52.698Z,8.57
2022-08-05T03:27:29.731Z,8.10
2022-08-05T03:30:21.293Z,8.10
2022-08-05T03:33:08.100Z,9.05
2022-08-05T03:35:41.986Z,7.53
2022-08-05T03:38:23.818Z,7.90
2022-08-05T03:41:10.714Z,7.25
2022-08-05T03:44:08.075Z,8.23
2022-08-05T03:46:38.581Z,8.05
2022-08-05T03:49:12.166Z,7.68
2022-08-05T03:52:37.259Z,7.57
2022-08-05T03:55:52.639Z,7.88
2022-08-05T03:57:50.433Z,7.78
2022-08-05T04:00:29.587Z,7.85
2022-08-05T04:03:08.168Z,7.85
2022-08-05T04:05:49.227Z,8.20
2022-08-05T04:08:35.207Z,8.30
2022-08-05T04:11:12.654Z,7.63
2022-08-05T04:13:53.325Z,7.22
2022-08-05T04:16:32.351Z,7.40
2022-08-05T04:19:10.568Z,6.88
2022-08-05T04:22:08.278Z,6.93
2022-08-05T04:24:38.258Z,8.27
2022-08-05T04:27:19.332Z,8.02
2022-08-05T04:30:08.605Z,6.40
2022-08-05T04:32:42.669Z,8.98
2022-08-05T04:35:17.499Z,7.47
2022-08-05T04:38:01.488Z,7.10
2022-08-05T04:40:47.826Z,6.95
2022-08-05T04:43:26.093Z,6.63
2022-08-05T04:45:59.631Z,7.20
2022-08-05T04:48:33.397Z,6.30
2022-08-05T04:51:11.483Z,7.55
2022-08-05T04:53:45.388Z,7.00
2022-08-05T04:56:34.929Z,7.03
2022-08-05T04:59:21.619Z,7.57
2022-08-05T05:02:35.171Z,6.20
2022-08-05T05:04:52.483Z,6.55
2022-08-05T05:07:36.021Z,6.57
2022-08-05T05:10:10.425Z,7.95
2022-08-05T05:12:44.209Z,7.03
2022-08-05T05:15:54.271Z,6.55
2022-08-05T05:18:15.415Z,7.55
2022-08-05T05:21:03.905Z,7.80
2022-08-05T05:23:39.051Z,7.20
2022-08-05T05:26:32.768Z,6.60
2022-08-05T05:29:10.152Z,6.05
2022-08-05T05:31:49.999Z,6.80
2022-08-05T05:34:26.937Z,7.00
2022-08-05T05:37:00.827Z,6.43
2022-08-05T05:39:35.178Z,7.65
2022-08-05T05:42:10.011Z,6.15
2022-08-05T05:44:46.021Z,6.57
2022-08-05T05:47:21.489Z,5.68
2022-08-05T05:50:01.498Z,14.50
2022-08-05T05:52:38.115Z,5.78
2022-08-05T05:55:15.684Z,5.57
2022-08-05T05:57:52.870Z,5.60
2022-08-05T06:00:27.757Z,5.68
2022-08-05T06:03:40.854Z,6.15
2022-08-05T06:06:00.263Z,6.50
2022-08-05T06:08:34.959Z,11.20
2022-08-05T06:11:13.510Z,9.88
2022-08-05T06:13:53.798Z,5.80
2022-08-05T06:16:33.051Z,7.03
2022-08-05T06:19:12.712Z,5.35
2022-08-05T06:21:59.941Z,5.20
2022-08-05T06:24:34.764Z,5.28
2022-08-05T06:27:17.227Z,5.35
2022-08-05T06:32:51.641Z,4.70
2022-08-05T06:36:07.517Z,7.22
2022-08-05T06:38:35.988Z,4.53
2022-08-05T06:41:16.852Z,4.20
2022-08-05T06:43:57.926Z,4.97
2022-08-05T06:46:33.536Z,4.50
2022-08-05T06:49:08.349Z,4.68
2022-08-05T06:51:43.530Z,4.35
2022-08-05T06:54:18.070Z,4.50
2022-08-05T06:56:54.880Z,4.72
2022-08-05T06:59:55.201Z,4.70
2022-08-05T07:02:32.496Z,4.38
2022-08-05T07:05:14.221Z,5.22
2022-08-05T07:10:30.525Z,5.18
2022-08-05T07:13:39.467Z,4.80
2022-08-05T07:17:59.722Z,4.85
2022-08-05T07:20:16.686Z,4.63
2022-08-05T07:22:28.662Z,4.45
2022-08-05T07:25:22.833Z,4.80
2022-08-05T07:28:03.739Z,4.40
2022-08-05T07:30:41.390Z,4.25
2022-08-05T07:33:17.359Z,4.57
2022-08-05T07:36:02.194Z,4.35
2022-08-05T07:38:43.684Z,4.28
2022-08-05T07:42:14.610Z,4.70
2022-08-05T07:44:18.987Z,3.80
2022-08-05T07:46:53.079Z,3.65
2022-08-05T07:49:27.582Z,3.90
2022-08-05T07:52:01.753Z,4.05
2022-08-05T07:54:41.235Z,3.45
2022-08-05T07:57:51.291Z,3.42
2022-08-05T08:00:17.057Z,3.63
2022-08-05T08:03:15.186Z,3.55
2022-08-05T08:05:49.767Z,5.50
2022-08-05T08:08:23.618Z,3.50
2022-08-05T08:11:00.838Z,4.22
2022-08-05T08:13:49.331Z,3.10
2022-08-05T08:16:35.948Z,3.45
2022-08-05T08:20:10.418Z,3.53
2022-08-05T08:22:16.936Z,3.20
2022-08-05T08:24:51.460Z,3.17
2022-08-05T08:27:40.409Z,3.40
2022-08-05T08:30:33.935Z,3.28
2022-08-05T08:35:53.860Z,3.22
2022-08-05T08:38:41.651Z,3.45
2022-08-05T08:41:17.333Z,2.78
2022-08-05T08:45:21.320Z,2.45
2022-08-05T08:46:50.292Z,3.17
2022-08-05T08:50:23.369Z,3.05
2022-08-05T08:52:25.358Z,2.85
2022-08-05T08:55:00.014Z,2.42
2022-08-05T08:57:48.300Z,2.47
2022-08-05T09:00:30.245Z,2.67
2022-08-05T09:03:07.901Z,2.97
2022-08-05T09:06:08.602Z,2.75
2022-08-05T09:08:35.474Z,2.63
2022-08-05T09:11:15.208Z,2.50
2022-08-05T09:14:10.113Z,2.20
2022-08-05T09:16:42.756Z,2.17
2022-08-05T09:19:24.709Z,2.75
2022-08-05T09:22:22.719Z,2.67
2022-08-05T09:24:59.723Z,2.40
2022-08-05T09:28:04.704Z,2.67
2022-08-05T09:30:29.186Z,2.35
2022-08-05T09:33:04.926Z,2.63
2022-08-05T09:35:54.051Z,2.75
2022-08-05T09:38:29.566Z,2.78
2022-08-05T09:41:08.732Z,2.58
2022-08-05T09:43:42.364Z,3.00
2022-08-05T09:46:28.401Z,2.67
2022-08-05T09:49:07.683Z,2.85
2022-08-05T09:51:53.578Z,2.92
2022-08-05T09:54:32.549Z,2.42
2022-08-05T09:57:06.223Z,3.10
2022-08-05T09:59:59.581Z,2.90
2022-08-05T10:02:35.476Z,2.75
2022-08-05T10:05:11.987Z,2.88
2022-08-05T10:08:36.481Z,2.70
2022-08-05T10:10:54.642Z,2.85
2022-08-05T10:13:43.824Z,2.70
2022-08-05T10:16:33.910Z,3.08
2022-08-05T10:19:09.428Z,2.80
2022-08-05T10:21:43.781Z,2.70
2022-08-05T10:24:19.952Z,2.47
2022-08-05T10:27:01.770Z,2.63
2022-08-05T10:30:06.804Z,2.90
2022-08-05T10:32:53.842Z,2.33
2022-08-05T10:35:33.803Z,2.70
2022-08-05T10:38:15.263Z,2.67
2022-08-05T10:41:00.718Z,2.35
2022-08-05T10:43:44.927Z,3.10
2022-08-05T10:46:23.788Z,3.10
2022-08-05T10:49:00.592Z,2.70
2022-08-05T10:51:48.622Z,3.13
2022-08-05T10:54:56.168Z,2.80
2022-08-05T10:57:34.235Z,3.05
2022-08-05T11:00:19.170Z,3.10
2022-08-05T11:03:23.004Z,2.72
2022-08-05T11:06:20.898Z,3.20
2022-08-05T11:09:16.980Z,3.00
2022-08-05T11:11:52.886Z,3.58
2022-08-05T11:17:59.813Z,3.70
2022-08-05T11:20:43.737Z,4.15
2022-08-05T11:23:33.224Z,4.07
2022-08-05T11:26:09.448Z,3.40
2022-08-05T11:28:47.088Z,3.22
2022-08-05T11:31:57.835Z,3.65
2022-08-05T11:34:38.843Z,3.88
2022-08-05T11:38:28.420Z,3.15
2022-08-05T11:40:06.595Z,3.80
2022-08-05T11:42:47.370Z,3.78
2022-08-05T11:46:14.745Z,3.72
2022-08-05T11:48:16.630Z,3.28
2022-08-05T11:50:52.910Z,3.83
2022-08-05T11:53:26.847Z,3.60
2022-08-05T11:56:07.536Z,3.58
2022-08-05T11:58:51.304Z,3.33
2022-08-05T12:01:26.940Z,3.25
2022-08-05T12:04:01.962Z,3.58
2022-08-05T12:06:37.427Z,3.40
2022-08-05T12:09:53.445Z,3.30
2022-08-05T12:12:24.038Z,3.03
2022-08-05T12:15:00.124Z,3.22
2022-08-05T12:18:02.720Z,3.17
2022-08-05T12:20:34.076Z,2.88
2022-08-05T12:23:13.584Z,3.10
2022-08-05T12:25:57.322Z,2.90
2022-08-05T12:28:39.015Z,3.13
2022-08-05T12:31:12.705Z,3.00
2022-08-05T12:33:57.538Z,3.05
2022-08-05T12:36:35.448Z,2.88
2022-08-05T12:39:09.448Z,2.78
2022-08-05T12:41:43.585Z,2.67
2022-08-05T12:44:32.676Z,3.20
2022-08-05T12:47:12.589Z,3.05
2022-08-05T12:50:04.561Z,3.13
2022-08-05T12:52:42.649Z,2.50
2022-08-05T12:55:22.139Z,2.67
2022-08-05T12:58:38.513Z,3.15
2022-08-05T13:02:03.287Z,2.63
2022-08-05T13:03:48.885Z,2.58
2022-08-05T13:06:29.410Z,3.00
2022-08-05T13:09:10.432Z,2.90
2022-08-05T13:12:02.061Z,3.10
2022-08-05T13:14:38.722Z,3.05
2022-08-05T13:17:31.540Z,2.80
2022-08-05T13:20:20.332Z,2.70
2022-08-05T13:22:57.539Z,3.13
2022-08-05T13:25:58.847Z,3.55
2022-08-05T13:28:26.878Z,3.17
2022-08-05T13:31:03.300Z,3.08
2022-08-05T13:34:23.461Z,3.35
2022-08-05T13:36:38.805Z,3.15
2022-08-05T13:40:14.313Z,3.05
2022-08-05T13:42:14.798Z,3.33
2022-08-05T13:44:49.114Z,3.03
2022-08-05T13:47:34.946Z,3.13
2022-08-05T13:50:14.792Z,3.30
2022-08-05T13:52:50.276Z,3.05
2022-08-05T13:55:41.041Z,3.03
2022-08-05T13:58:23.277Z,3.50
2022-08-05T14:01:05.417Z,3.60
2022-08-05T14:03:40.836Z,3.30
2022-08-05T14:06:26.757Z,3.67
2022-08-05T14:09:01.552Z,3.00
2022-08-05T14:12:00.462Z,6.20
2022-08-05T14:14:37.585Z,3.03
2022-08-05T14:17:16.889Z,2.80
2022-08-05T14:19:55.462Z,3.20
2022-08-05T14:22:34.526Z,3.22
2022-08-05T14:25:21.362Z,3.35
2022-08-05T14:27:55.944Z,3.22
2022-08-05T14:30:30.866Z,3.83
2022-08-05T14:33:05.263Z,3.20
2022-08-05T14:35:50.477Z,3.20
2022-08-05T14:38:32.911Z,3.15
2022-08-05T14:41:09.609Z,3.40
2022-08-05T14:44:02.461Z,2.90
2022-08-05T14:46:38.634Z,3.35
2022-08-05T14:49:12.285Z,2.90
2022-08-05T14:51:45.957Z,2.50
2022-08-05T14:54:27.575Z,3.00
2022-08-05T14:57:05.362Z,3.30
2022-08-05T14:59:43.421Z,2.85
2022-08-05T15:02:18.530Z,4.40
2022-08-05T15:04:54.142Z,4.43
2022-08-05T15:08:11.621Z,3.25
2022-08-05T15:10:28.868Z,2.70
2022-08-05T15:13:04.785Z,2.38
2022-08-05T15:15:55.881Z,2.95
2022-08-05T15:18:31.421Z,2.75
2022-08-05T15:21:07.464Z,3.50
2022-08-05T15:23:41.675Z,2.78
2022-08-05T15:26:15.660Z,2.78
2022-08-05T15:29:05.444Z,2.90
2022-08-05T15:31:39.770Z,2.72
2022-08-05T15:34:32.376Z,3.13
2022-08-05T15:38:09.325Z,5.28
2022-08-05T15:41:00.212Z,2.95
2022-08-05T15:43:00.462Z,2.80
2022-08-05T15:45:45.747Z,2.72
2022-08-05T15:48:21.199Z,3.33
2022-08-05T15:51:03.450Z,4.20
2022-08-05T15:53:51.356Z,3.42
2022-08-05T15:56:25.368Z,3.00
2022-08-05T15:59:04.252Z,3.15
2022-08-05T16:01:52.064Z,3.10
2022-08-05T16:04:27.030Z,3.20
2022-08-05T16:07:02.342Z,3.38
2022-08-05T16:09:35.921Z,3.22
2022-08-05T16:12:11.481Z,3.28
2022-08-05T16:14:45.936Z,2.70
2022-08-05T16:17:20.288Z,3.28
2022-08-05T16:20:05.379Z,2.88
2022-08-05T16:22:46.277Z,3.25
2022-08-05T16:25:20.555Z,3.17
2022-08-05T16:28:04.878Z,3.17
2022-08-05T16:30:39.694Z,3.08
2022-08-05T16:33:15.521Z,2.92
2022-08-05T16:35:53.060Z,3.47
2022-08-05T16:38:29.332Z,3.22
2022-08-05T16:42:12.684Z,2.97
2022-08-05T16:43:57.691Z,2.85
2022-08-05T16:46:31.593Z,2.90
2022-08-05T16:49:06.752Z,3.00
2022-08-05T16:51:42.568Z,2.70
2022-08-05T16:54:31.924Z,2.60
2022-08-05T16:57:14.957Z,2.90
2022-08-05T17:00:01.350Z,3.40
2022-08-05T17:02:38.106Z,3.00
2022-08-05T17:05:11.833Z,3.00
2022-08-05T17:07:53.136Z,3.22
2022-08-05T17:10:30.619Z,3.45
2022-08-05T17:13:04.495Z,2.90
2022-08-05T17:15:47.858Z,3.35
2022-08-05T17:18:22.243Z,3.60
2022-08-05T17:20:56.278Z,4.05
2022-08-05T17:24:05.479Z,4.05
2022-08-05T17:26:25.109Z,3.67
2022-08-05T17:28:59.375Z,3.67
2022-08-05T17:31:56.933Z,3.80
2022-08-05T17:34:32.622Z,4.05
2022-08-05T17:37:36.149Z,3.85
2022-08-05T17:40:03.368Z,3.78
2022-08-05T17:42:46.425Z,3.78
2022-08-05T17:45:29.733Z,4.63
2022-08-05T17:48:12.534Z,4.45
2022-08-05T17:50:46.243Z,4.30
2022-08-05T17:53:20.939Z,4.45
2022-08-05T17:55:54.695Z,4.25
2022-08-05T17:58:32.821Z,4.95
2022-08-05T18:01:08.187Z,5.25
2022-08-05T18:03:58.678Z,5.35
2022-08-05T18:06:40.326Z,5.90
2022-08-05T18:10:00.032Z,7.90
2022-08-05T18:12:35.810Z,10.75
2022-08-05T18:15:11.721Z,9.98
2022-08-05T18:17:59.229Z,8.73
2022-08-05T18:20:35.505Z,7.05
2022-08-05T18:23:12.244Z,5.35
2022-08-05T18:25:47.667Z,6.18
2022-08-05T18:28:31.632Z,5.05
2022-08-05T18:31:07.224Z,4.93
2022-08-05T18:33:47.170Z,5.75
2022-08-05T18:36:27.860Z,5.45
2022-08-05T18:39:01.988Z,6.72
2022-08-05T18:41:56.221Z,5.20
2022-08-05T18:44:34.970Z,5.25
2022-08-05T18:50:17.956Z,4.53
2022-08-05T18:52:51.909Z,5.20
2022-08-05T18:55:25.628Z,5.03
2022-08-05T18:58:03.593Z,5.07
2022-08-05T19:00:37.569Z,6.25
2022-08-05T19:03:17.877Z,6.55
2022-08-05T19:06:20.140Z,6.15
2022-08-05T19:08:56.083Z,6.20
2022-08-05T19:11:59.412Z,6.18
2022-08-05T19:14:59.368Z,6.63
2022-08-05T19:17:17.702Z,6.28
2022-08-05T19:19:54.321Z,6.38
2022-08-05T19:22:28.088Z,6.40
2022-08-05T19:25:02.642Z,6.65
2022-08-05T19:27:36.481Z,7.18
2022-08-05T19:30:11.162Z,6.75
2022-08-05T19:32:45.842Z,7.05
2022-08-05T19:35:21.798Z,7.43
2022-08-05T19:38:06.247Z,6.93
2022-08-05T19:40:43.961Z,8.50
2022-08-05T19:44:04.572Z,7.38
2022-08-05T19:46:16.829Z,8.43
2022-08-05T19:49:04.383Z,7.97
2022-08-05T19:52:08.350Z,7.85
2022-08-05T19:54:34.337Z,7.90
2022-08-05T19:57:09.922Z,7.30
2022-08-05T19:59:56.536Z,7.60
2022-08-05T20:02:45.174Z,8.25
2022-08-05T20:05:24.167Z,8.50
2022-08-05T20:07:59.785Z,8.02
2022-08-05T20:10:33.434Z,9.45
2022-08-05T20:13:07.084Z,9.30
2022-08-05T20:15:50.783Z,9.25
2022-08-05T20:18:32.812Z,9.25
2022-08-05T20:21:09.267Z,10.02
2022-08-05T20:23:50.911Z,9.73
2022-08-05T20:26:27.182Z,8.73
2022-08-05T20:29:01.085Z,8.88
2022-08-05T20:31:43.048Z,10.55
2022-08-05T20:34:26.193Z,10.90
2022-08-05T20:36:59.920Z,8.75
2022-08-05T20:39:36.697Z,12.18
2022-08-05T20:42:11.617Z,9.35
2022-08-05T20:44:45.389Z,9.75
2022-08-05T20:47:19.669Z,8.95
2022-08-05T20:50:07.469Z,8.68
2022-08-05T20:52:42.429Z,8.15
2022-08-05T20:55:54.638Z,8.73
2022-08-05T20:58:11.276Z,8.52
2022-08-05T21:00:54.390Z,8.00
2022-08-05T21:03:28.500Z,7.95
2022-08-05T21:06:28.121Z,8.10
2022-08-05T21:09:02.402Z,7.65
2022-08-05T21:12:07.533Z,8.05
2022-08-05T21:14:34.661Z,8.55
2022-08-05T21:17:09.037Z,8.05
2022-08-05T21:19:47.582Z,7.60
2022-08-05T21:22:24.155Z,8.57
2022-08-05T21:24:57.834Z,9.13
2022-08-05T21:27:38.976Z,8.48
2022-08-05T21:30:17.609Z,7.68
2022-08-05T21:32:51.593Z,8.05
2022-08-05T21:35:30.174Z,7.85
2022-08-05T21:38:17.478Z,7.97
2022-08-05T21:40:51.174Z,7.97
2022-08-05T21:43:26.334Z,8.18
2022-08-05T21:46:07.560Z,8.83
2022-08-05T21:48:41.290Z,8.75
2022-08-05T21:51:25.225Z,13.70
2022-08-05T21:56:44.256Z,12.50
2022-08-05T21:59:24.299Z,11.05
2022-08-05T22:02:00.063Z,11.38
2022-08-05T22:04:33.752Z,10.82
2022-08-05T22:07:08.693Z,10.45
2022-08-05T22:09:47.343Z,9.10
2022-08-05T22:12:21.268Z,9.32
2022-08-05T22:15:01.743Z,11.73
2022-08-05T22:17:48.527Z,14.65
2022-08-05T22:23:22.361Z,16.70
2022-08-05T22:26:15.064Z,15.93
2022-08-05T22:28:48.822Z,15.38
2022-08-05T22:31:24.687Z,14.20
2022-08-05T22:34:03.697Z,13.45
2022-08-05T22:36:38.323Z,12.35
2022-08-05T22:39:16.251Z,12.70
2022-08-05T22:44:36.634Z,12.18
2022-08-05T22:47:11.083Z,10.90
2022-08-05T22:50:20.259Z,11.35
2022-08-05T22:52:40.722Z,11.48
2022-08-05T22:55:19.081Z,8.60
2022-08-05T22:57:55.180Z,8.98
2022-08-05T23:00:30.315Z,8.68
2022-08-05T23:03:05.199Z,9.05
2022-08-05T23:05:38.815Z,8.82
2022-08-05T23:08:14.270Z,8.32
2022-08-05T23:10:50.873Z,8.93
2022-08-05T23:13:26.932Z,8.90
2022-08-05T23:16:02.073Z,8.50
2022-08-05T23:18:35.807Z,8.35
2022-08-05T23:21:12.163Z,8.90
2022-08-05T23:23:50.151Z,8.30
2022-08-05T23:26:25.916Z,8.80
2022-08-05T23:29:01.218Z,9.15
2022-08-05T23:31:36.282Z,8.68
2022-08-05T23:34:09.897Z,8.65
2022-08-05T23:36:44.607Z,8.65
2022-08-05T23:39:31.759Z,8.75
2022-08-05T23:42:08.683Z,9.55
2022-08-05T23:44:54.234Z,8.70
2022-08-05T23:47:33.583Z,9.73
2022-08-05T23:50:09.337Z,8.93
2022-08-05T23:52:50.438Z,9.13
2022-08-05T23:55:31.104Z,9.75
2022-08-05T23:58:05.021Z,9.57
